createdAt,value
2022-09-22T00:01:11.945Z,96884.03
2022-09-22T00:03:42.398Z,96881.97
2022-09-22T00:06:13.608Z,96880.19
2022-09-22T00:08:44.091Z,96887.19
2022-09-22T00:11:17.127Z,96885.19
2022-09-22T00:13:48.810Z,96879.38
2022-09-22T00:16:15.991Z,96874.75
2022-09-22T00:18:43.090Z,96873.94
2022-09-22T00:21:20.130Z,96878.91
2022-09-22T00:23:47.795Z,96862.47
2022-09-22T00:26:21.870Z,96869.91
2022-09-22T00:28:51.490Z,96863.06
2022-09-22T00:31:24.266Z,96866.66
2022-09-22T00:33:53.190Z,96866.25
2022-09-22T00:36:22.570Z,96861.44
2022-09-22T00:38:51.661Z,96863.44
2022-09-22T00:41:22.030Z,96859.81
2022-09-22T00:43:51.872Z,96854.00
2022-09-22T00:46:24.408Z,96854.75
2022-09-22T00:48:56.211Z,96851.94
2022-09-22T00:51:27.203Z,96850.91
2022-09-22T00:53:56.580Z,96848.09
2022-09-22T00:56:35.470Z,96854.56
2022-09-22T00:59:08.452Z,96845.34
2022-09-22T01:01:36.987Z,96850.56
2022-09-22T01:04:04.753Z,96849.75
2022-09-22T01:06:32.031Z,96844.13
2022-09-22T01:09:00.313Z,96845.69
2022-09-22T01:11:30.030Z,96845.34
2022-09-22T01:14:34.450Z,96848.13
2022-09-22T01:17:16.571Z,96846.16
2022-09-22T01:20:01.539Z,96839.31
2022-09-22T01:22:40.590Z,96837.91
2022-09-22T01:25:22.678Z,96839.50
2022-09-22T01:28:28.816Z,96828.28
2022-09-22T01:31:11.870Z,96827.06
2022-09-22T01:33:44.892Z,96827.84
2022-09-22T01:36:36.070Z,96826.84
2022-09-22T01:39:28.699Z,96822.00
2022-09-22T01:42:11.672Z,96824.41
2022-09-22T01:45:01.692Z,96828.03
2022-09-22T01:47:36.670Z,96825.63
2022-09-22T01:50:09.569Z,96819.22
2022-09-22T01:52:38.970Z,96806.97
2022-09-22T01:55:27.259Z,96804.31
2022-09-22T01:57:59.966Z,96811.34
2022-09-22T02:00:27.530Z,96815.97
2022-09-22T02:03:01.330Z,96813.03
2022-09-22T02:05:45.432Z,96812.47
2022-09-22T02:08:18.311Z,96802.91
2022-09-22T02:10:48.191Z,96803.72
2022-09-22T02:13:15.731Z,96798.94
2022-09-22T02:16:01.681Z,96794.94
2022-09-22T02:18:40.133Z,96793.34
2022-09-22T02:21:07.399Z,96795.00
2022-09-22T02:23:34.419Z,96794.81
2022-09-22T02:26:03.218Z,96795.22
2022-09-22T02:28:33.629Z,96794.03
2022-09-22T02:31:19.527Z,96798.81
2022-09-22T02:33:49.289Z,96786.56
2022-09-22T02:36:53.930Z,96805.44
2022-09-22T02:39:35.098Z,96791.41
2022-09-22T02:42:11.350Z,96793.00
2022-09-22T02:44:47.330Z,96790.94
2022-09-22T02:47:32.649Z,96799.56
2022-09-22T02:50:01.130Z,96795.00
2022-09-22T02:52:27.951Z,96793.03
2022-09-22T02:54:54.930Z,96794.19
2022-09-22T02:57:22.078Z,96795.19
2022-09-22T02:59:49.170Z,96790.94
2022-09-22T03:02:16.490Z,96789.75
2022-09-22T03:04:43.672Z,96781.97
2022-09-22T03:07:10.650Z,96785.56
2022-09-22T03:09:37.819Z,96783.97
2022-09-22T03:12:05.045Z,96787.56
2022-09-22T03:14:32.069Z,96781.81
2022-09-22T03:16:59.350Z,96774.75
2022-09-22T03:19:26.411Z,96771.16
2022-09-22T03:21:53.411Z,96774.16
2022-09-22T03:24:20.450Z,96770.75
2022-09-22T03:26:47.490Z,96763.34
2022-09-22T03:29:14.530Z,96766.75
2022-09-22T03:31:41.452Z,96760.97
2022-09-22T03:34:08.670Z,96773.78
2022-09-22T03:36:35.691Z,96768.56
2022-09-22T03:39:02.750Z,96765.63
2022-09-22T03:41:29.830Z,96771.44
2022-09-22T03:43:56.918Z,96773.88
2022-09-22T03:46:23.937Z,96772.47
2022-09-22T03:48:51.190Z,96775.28
2022-09-22T03:51:19.592Z,96783.66
2022-09-22T03:53:46.670Z,96774.66
2022-09-22T03:56:16.450Z,96775.28
2022-09-22T03:58:44.251Z,96778.28
2022-09-22T04:01:11.721Z,96771.47
2022-09-22T04:03:39.880Z,96768.84
2022-09-22T04:06:07.430Z,96771.47
2022-09-22T04:08:34.691Z,96780.06
2022-09-22T04:11:03.552Z,96785.06
2022-09-22T04:13:31.018Z,96766.63
2022-09-22T04:15:58.871Z,96776.28
2022-09-22T04:18:26.833Z,96774.25
2022-09-22T04:20:58.508Z,96770.63
2022-09-22T04:23:27.576Z,96772.25
2022-09-22T04:25:55.263Z,96769.41
2022-09-22T04:28:22.942Z,96771.38
2022-09-22T04:30:50.644Z,96776.59
2022-09-22T04:33:18.044Z,96769.94
2022-09-22T04:35:45.468Z,96772.34
2022-09-22T04:38:14.257Z,96773.72
2022-09-22T04:40:41.797Z,96773.34
2022-09-22T04:43:09.116Z,96773.72
2022-09-22T04:45:39.634Z,96771.91
2022-09-22T04:48:07.258Z,96776.06
2022-09-22T04:50:34.348Z,96779.47
2022-09-22T04:53:07.135Z,96771.91
2022-09-22T04:55:35.299Z,96770.84
2022-09-22T04:58:02.900Z,96774.28
2022-09-22T05:00:30.909Z,96770.84
2022-09-22T05:02:58.571Z,96779.25
2022-09-22T05:05:25.823Z,96777.88
2022-09-22T05:07:55.858Z,96775.28
2022-09-22T05:10:25.575Z,96785.06
2022-09-22T05:12:56.175Z,96781.66
2022-09-22T05:15:23.458Z,96782.25
2022-09-22T05:17:53.469Z,96783.06
2022-09-22T05:20:21.535Z,96788.03
2022-09-22T05:22:49.536Z,96790.81
2022-09-22T05:25:19.336Z,96799.59
2022-09-22T05:27:48.023Z,96793.94
2022-09-22T05:30:15.819Z,96792.50
2022-09-22T05:32:45.015Z,96788.56
2022-09-22T05:35:13.855Z,96797.28
2022-09-22T05:37:45.300Z,96792.34
2022-09-22T05:40:13.714Z,96784.78
2022-09-22T05:42:47.992Z,96785.25
2022-09-22T05:45:16.660Z,96785.56
2022-09-22T05:47:44.340Z,96785.03
2022-09-22T05:50:13.856Z,96793.53
2022-09-22T05:52:41.153Z,96792.81
2022-09-22T05:55:08.951Z,96787.84
2022-09-22T05:57:36.155Z,96777.09
2022-09-22T06:00:05.681Z,96789.88
2022-09-22T06:02:39.730Z,96795.13
2022-09-22T06:05:07.547Z,96785.09
2022-09-22T06:07:34.889Z,96792.06
2022-09-22T06:10:02.337Z,96788.19
2022-09-22T06:12:29.615Z,96790.16
2022-09-22T06:14:57.384Z,96787.59
2022-09-22T06:17:24.565Z,96791.94
2022-09-22T06:19:51.993Z,96793.69
2022-09-22T06:22:19.291Z,96787.88
2022-09-22T06:24:46.542Z,96785.91
2022-09-22T06:27:13.872Z,96794.22
2022-09-22T06:29:42.003Z,96796.69
2022-09-22T06:32:09.869Z,96788.13
2022-09-22T06:34:38.570Z,96791.78
2022-09-22T06:37:09.742Z,96792.78
2022-09-22T06:39:40.741Z,96795.03
2022-09-22T06:42:08.710Z,96797.22
2022-09-22T06:44:36.130Z,96796.22
2022-09-22T06:47:08.932Z,96806.72
2022-09-22T06:49:36.477Z,96796.31
2022-09-22T06:52:04.263Z,96800.88
2022-09-22T06:54:31.686Z,96788.81
2022-09-22T06:56:58.777Z,96788.16
2022-09-22T06:59:26.099Z,96790.63
2022-09-22T07:01:53.443Z,96789.84
2022-09-22T07:04:22.668Z,96786.00
2022-09-22T07:06:50.713Z,96787.81
2022-09-22T07:09:18.282Z,96797.88
2022-09-22T07:11:45.468Z,96792.28
2022-09-22T07:14:12.871Z,96787.03
2022-09-22T07:16:41.248Z,96785.31
2022-09-22T07:19:08.833Z,96779.63
2022-09-22T07:21:38.070Z,96777.53
2022-09-22T07:24:08.540Z,96773.44
2022-09-22T07:26:38.515Z,96780.47
2022-09-22T07:29:08.969Z,96774.66
2022-09-22T07:31:37.152Z,96776.56
2022-09-22T07:34:04.467Z,96773.38
2022-09-22T07:36:34.332Z,96772.22
2022-09-22T07:39:11.503Z,96773.75
2022-09-22T07:41:43.631Z,96772.28
2022-09-22T07:44:43.712Z,96775.31
2022-09-22T07:47:11.778Z,96776.94
2022-09-22T07:49:39.020Z,96774.41
2022-09-22T07:52:06.414Z,96776.56
2022-09-22T07:54:37.097Z,96777.16
2022-09-22T07:57:07.017Z,96786.34
2022-09-22T07:59:36.498Z,96784.28
2022-09-22T08:02:03.759Z,96780.78
2022-09-22T08:04:32.265Z,96776.72
2022-09-22T08:06:59.459Z,96774.84
2022-09-22T08:09:26.982Z,96777.59
2022-09-22T08:11:55.539Z,96782.72
2022-09-22T08:14:24.256Z,96783.19
2022-09-22T08:16:53.891Z,96780.78
2022-09-22T08:19:24.117Z,96790.25
2022-09-22T08:21:54.516Z,96789.34
2022-09-22T08:24:23.372Z,96788.66
2022-09-22T08:26:53.371Z,96796.72
2022-09-22T08:29:21.531Z,96794.25
2022-09-22T08:31:49.754Z,96784.06
2022-09-22T08:34:18.398Z,96788.59
2022-09-22T08:36:49.108Z,96785.22
2022-09-22T08:39:19.853Z,96790.28
2022-09-22T08:42:09.704Z,96783.03
2022-09-22T08:44:54.867Z,96789.34
2022-09-22T08:47:51.690Z,96791.28
2022-09-22T08:51:03.822Z,96783.78
2022-09-22T08:53:35.708Z,96793.31
2022-09-22T08:56:30.949Z,96795.25
2022-09-22T08:59:04.710Z,96789.03
2022-09-22T09:02:11.514Z,96796.78
2022-09-22T09:04:42.324Z,96799.50
2022-09-22T09:07:10.426Z,96799.28
2022-09-22T09:10:10.155Z,96796.44
2022-09-22T09:12:49.020Z,96790.69
2022-09-22T09:15:26.989Z,96795.00
2022-09-22T09:17:59.422Z,96787.38
2022-09-22T09:20:45.597Z,96786.38
2022-09-22T09:23:19.651Z,96799.31
2022-09-22T09:25:54.025Z,96791.94
2022-09-22T09:28:32.062Z,96784.63
2022-09-22T09:31:08.016Z,96781.25
2022-09-22T09:33:47.151Z,96782.38
2022-09-22T09:36:33.382Z,96776.38
2022-09-22T09:39:11.468Z,96778.69
2022-09-22T09:41:42.183Z,96783.81
2022-09-22T09:44:20.506Z,96784.91
2022-09-22T09:47:02.514Z,96781.47
2022-09-22T09:49:30.198Z,96785.38
2022-09-22T09:52:01.139Z,96785.47
2022-09-22T09:54:28.904Z,96781.75
2022-09-22T09:57:11.659Z,96782.28
2022-09-22T10:00:00.471Z,96779.41
2022-09-22T10:02:31.752Z,96776.47
2022-09-22T10:05:01.175Z,96778.34
2022-09-22T10:10:35.881Z,96774.91
2022-09-22T10:13:03.382Z,96783.38
2022-09-22T10:15:36.173Z,96780.97
2022-09-22T10:18:24.301Z,96778.06
2022-09-22T10:21:18.705Z,96782.06
2022-09-22T10:23:54.094Z,96779.38
2022-09-22T10:26:31.019Z,96780.22
2022-09-22T10:29:13.418Z,96783.38
2022-09-22T10:31:42.270Z,96779.66
2022-09-22T10:34:34.991Z,96779.66
2022-09-22T10:37:09.339Z,96774.38
2022-09-22T10:39:47.379Z,96777.81
2022-09-22T10:42:34.698Z,96775.94
2022-09-22T10:45:14.348Z,96772.25
2022-09-22T10:47:51.698Z,96769.09
2022-09-22T10:50:48.498Z,96772.50
2022-09-22T10:53:17.895Z,96769.59
2022-09-22T10:56:13.095Z,96765.91
2022-09-22T10:59:32.862Z,96761.91
2022-09-22T11:14:02.575Z,96755.69
2022-09-22T11:16:38.537Z,96757.84
2022-09-22T11:19:31.775Z,96754.00
2022-09-22T11:22:08.217Z,96751.88
2022-09-22T11:24:55.734Z,96747.66
2022-09-22T11:27:36.858Z,96743.16
2022-09-22T11:30:23.334Z,96743.09
2022-09-22T11:33:05.645Z,96739.09
2022-09-22T11:35:51.184Z,96732.88
2022-09-22T11:38:36.577Z,96732.06
2022-09-22T11:41:31.655Z,96718.72
2022-09-22T11:44:44.030Z,96711.59
2022-09-22T11:47:43.755Z,96716.78
2022-09-22T11:50:22.704Z,96708.25
2022-09-22T11:53:08.503Z,96710.31
2022-09-22T11:55:56.828Z,96715.72
2022-09-22T11:58:28.382Z,96712.97
2022-09-22T12:01:01.662Z,96705.06
2022-09-22T12:03:35.988Z,96710.03
2022-09-22T12:06:06.783Z,96710.47
2022-09-22T12:08:39.741Z,96705.28
2022-09-22T12:11:10.975Z,96698.41
2022-09-22T12:13:46.203Z,96700.41
2022-09-22T12:16:25.614Z,96700.44
2022-09-22T12:19:03.562Z,96707.38
2022-09-22T12:21:54.852Z,96703.06
2022-09-22T12:24:22.190Z,96700.47
2022-09-22T12:26:51.440Z,96701.59
2022-09-22T12:29:30.819Z,96701.63
2022-09-22T12:31:59.352Z,96701.13
2022-09-22T12:34:29.550Z,96702.56
2022-09-22T12:37:08.754Z,96701.88
2022-09-22T12:39:44.633Z,96698.81
2022-09-22T12:42:36.763Z,96698.84
2022-09-22T12:45:20.933Z,96709.59
2022-09-22T12:47:55.031Z,96710.59
2022-09-22T12:50:25.009Z,96706.31
2022-09-22T12:52:51.977Z,96708.44
2022-09-22T12:55:40.049Z,96705.34
2022-09-22T12:58:19.813Z,96708.78
2022-09-22T13:00:51.041Z,96713.00
2022-09-22T13:03:27.330Z,96708.50
2022-09-22T13:05:59.861Z,96709.75
2022-09-22T13:08:33.061Z,96707.66
2022-09-22T13:11:05.984Z,96701.03
2022-09-22T13:13:40.280Z,96702.84
2022-09-22T13:16:16.810Z,96706.81
2022-09-22T13:19:01.643Z,96698.38
2022-09-22T13:21:31.371Z,96695.47
2022-09-22T13:24:02.732Z,96700.25
2022-09-22T13:26:39.121Z,96687.34
2022-09-22T13:29:12.585Z,96683.09
2022-09-22T13:31:51.304Z,96692.25
2022-09-22T13:34:29.368Z,96679.72
2022-09-22T13:36:58.972Z,96680.16
2022-09-22T13:39:28.984Z,96676.53
2022-09-22T13:42:04.280Z,96686.09
2022-09-22T13:44:34.467Z,96678.56
2022-09-22T13:47:07.134Z,96691.09
2022-09-22T13:49:42.569Z,96701.50
2022-09-22T13:52:18.227Z,96697.78
2022-09-22T13:54:50.204Z,96705.50
2022-09-22T13:57:28.176Z,96704.72
2022-09-22T13:59:57.907Z,96699.69
2022-09-22T14:02:30.774Z,96699.28
2022-09-22T14:05:18.638Z,96701.28
2022-09-22T14:08:07.770Z,96703.09
2022-09-22T14:10:34.475Z,96702.56
2022-09-22T14:13:01.377Z,96703.13
2022-09-22T14:15:37.894Z,96699.22
2022-09-22T14:18:26.621Z,96695.53
2022-09-22T14:20:57.366Z,96693.19
2022-09-22T14:23:31.611Z,96703.16
2022-09-22T14:26:02.101Z,96694.03
2022-09-22T14:28:35.193Z,96685.94
2022-09-22T14:31:02.809Z,96685.63
2022-09-22T14:33:33.688Z,96680.59
2022-09-22T14:36:06.798Z,96679.97
2022-09-22T14:38:44.452Z,96683.75
2022-09-22T14:41:26.569Z,96690.69
2022-09-22T14:43:54.760Z,96684.81
2022-09-22T14:46:22.064Z,96683.25
2022-09-22T14:48:49.214Z,96675.31
2022-09-22T14:51:21.880Z,96674.28
2022-09-22T14:53:55.627Z,96672.72
2022-09-22T14:56:29.280Z,96679.63
2022-09-22T14:59:22.744Z,96678.09
2022-09-22T15:02:09.746Z,96672.81
2022-09-22T15:04:41.163Z,96668.56
2022-09-22T15:07:24.925Z,96678.09
2022-09-22T15:09:55.704Z,96677.00
2022-09-22T15:12:41.051Z,96682.25
2022-09-22T15:15:26.955Z,96667.16
2022-09-22T15:18:19.650Z,96670.56
2022-09-22T15:20:52.397Z,96670.81
2022-09-22T15:23:35.841Z,96667.13
2022-09-22T15:26:06.627Z,96667.13
2022-09-22T15:28:38.179Z,96665.19
2022-09-22T15:31:09.386Z,96670.50
2022-09-22T15:33:36.524Z,96669.91
2022-09-22T15:36:11.408Z,96663.81
2022-09-22T15:38:39.320Z,96665.63
2022-09-22T15:41:11.043Z,96669.78
2022-09-22T15:43:41.820Z,96673.47
2022-09-22T15:46:34.182Z,96662.38
2022-09-22T15:49:06.485Z,96664.44
2022-09-22T15:51:33.660Z,96664.97
2022-09-22T15:54:00.784Z,96667.84
2022-09-22T15:56:30.358Z,96672.41
2022-09-22T15:59:01.262Z,96667.13
2022-09-22T16:01:29.747Z,96676.91
2022-09-22T16:04:00.450Z,96677.16
2022-09-22T16:06:27.745Z,96684.25
2022-09-22T16:08:55.521Z,96691.91
2022-09-22T16:11:31.608Z,96686.34
2022-09-22T16:14:06.232Z,96689.19
2022-09-22T16:16:36.027Z,96697.03
2022-09-22T16:19:03.019Z,96699.66
2022-09-22T16:21:30.918Z,96701.94
2022-09-22T16:24:03.624Z,96693.72
2022-09-22T16:26:32.134Z,96689.69
2022-09-22T16:28:59.980Z,96698.34
2022-09-22T16:31:27.766Z,96695.34
2022-09-22T16:33:56.634Z,96696.84
2022-09-22T16:36:58.301Z,96697.25
2022-09-22T16:39:25.377Z,96696.91
2022-09-22T16:41:52.322Z,96692.03
2022-09-22T16:44:19.357Z,96692.97
2022-09-22T16:46:46.298Z,96696.06
2022-09-22T16:49:16.411Z,96698.00
2022-09-22T16:51:49.019Z,96693.69
2022-09-22T16:54:16.819Z,96702.47
2022-09-22T16:56:47.000Z,96697.03
2022-09-22T16:59:19.297Z,96705.25
2022-09-22T17:01:46.561Z,96708.41
2022-09-22T17:04:21.850Z,96706.63
2022-09-22T17:06:49.959Z,96707.94
2022-09-22T17:09:17.633Z,96717.56
2022-09-22T17:11:46.773Z,96715.16
2022-09-22T17:14:16.071Z,96714.31
2022-09-22T17:16:55.758Z,96722.97
2022-09-22T17:19:26.521Z,96717.94
2022-09-22T17:21:55.623Z,96712.59
2022-09-22T17:24:24.992Z,96723.66
2022-09-22T17:26:57.934Z,96724.66
2022-09-22T17:29:27.382Z,96716.06
2022-09-22T17:32:02.892Z,96720.44
2022-09-22T17:34:33.054Z,96713.56
2022-09-22T17:37:03.082Z,96724.44
2022-09-22T17:39:32.420Z,96721.72
2022-09-22T17:41:59.526Z,96721.63
2022-09-22T17:44:28.961Z,96730.91
2022-09-22T17:47:14.997Z,96733.44
2022-09-22T17:50:00.356Z,96736.63
2022-09-22T17:52:40.134Z,96744.53
2022-09-22T17:55:19.184Z,96744.97
2022-09-22T17:57:46.693Z,96744.88
2022-09-22T18:00:16.355Z,96750.13
2022-09-22T18:02:45.367Z,96749.19
2022-09-22T18:05:15.301Z,96756.72
2022-09-22T18:07:42.666Z,96753.75
2022-09-22T18:10:12.778Z,96751.25
2022-09-22T18:12:40.569Z,96754.44
2022-09-22T18:15:08.436Z,96757.19
2022-09-22T18:17:43.187Z,96755.09
2022-09-22T18:20:13.355Z,96763.88
2022-09-22T18:22:42.003Z,96765.47
2022-09-22T18:25:10.655Z,96764.44
2022-09-22T18:27:38.335Z,96762.50
2022-09-22T18:30:06.433Z,96767.75
2022-09-22T18:32:35.009Z,96765.00
2022-09-22T18:35:02.592Z,96766.47
2022-09-22T18:37:29.762Z,96766.94
2022-09-22T18:39:57.759Z,96776.38
2022-09-22T18:42:27.721Z,96771.88
2022-09-22T18:44:54.641Z,96777.09
2022-09-22T18:47:23.803Z,96774.28
2022-09-22T18:49:54.000Z,96769.41
2022-09-22T18:52:25.002Z,96776.09
2022-09-22T18:54:54.677Z,96778.59
2022-09-22T18:57:24.620Z,96777.19
2022-09-22T18:59:52.079Z,96776.94
2022-09-22T19:02:23.345Z,96776.00
2022-09-22T19:04:54.000Z,96775.22
2022-09-22T19:07:42.572Z,96778.81
2022-09-22T19:10:12.490Z,96782.66
2022-09-22T19:12:40.929Z,96782.91
2022-09-22T19:15:14.042Z,96787.56
2022-09-22T19:17:47.242Z,96789.16
2022-09-22T19:20:22.223Z,96788.78
2022-09-22T19:22:50.710Z,96797.91
2022-09-22T19:25:20.270Z,96791.41
2022-09-22T19:27:47.820Z,96792.00
2022-09-22T19:30:14.810Z,96787.78
2022-09-22T19:32:42.100Z,96788.34
2022-09-22T19:35:09.962Z,96788.34
2022-09-22T19:37:37.390Z,96788.13
2022-09-22T19:40:06.791Z,96787.56
2022-09-22T19:42:40.028Z,96790.38
2022-09-22T19:45:08.079Z,96793.22
2022-09-22T19:47:35.777Z,96787.06
2022-09-22T19:50:03.401Z,96797.38
2022-09-22T19:52:30.304Z,96792.78
2022-09-22T19:54:57.292Z,96795.19
2022-09-22T19:57:24.462Z,96796.00
2022-09-22T19:59:51.402Z,96795.56
2022-09-22T20:02:18.619Z,96803.06
2022-09-22T20:04:46.691Z,96800.31
2022-09-22T20:07:13.969Z,96800.09
2022-09-22T20:09:40.942Z,96799.56
2022-09-22T20:12:08.282Z,96797.59
2022-09-22T20:14:35.440Z,96800.38
2022-09-22T20:17:06.480Z,96801.41
2022-09-22T20:19:35.381Z,96808.56
2022-09-22T20:22:29.392Z,96806.34
2022-09-22T20:24:59.040Z,96804.28
2022-09-22T20:27:29.371Z,96809.75
2022-09-22T20:29:58.451Z,96808.34
2022-09-22T20:32:26.981Z,96804.72
2022-09-22T20:34:55.638Z,96808.94
2022-09-22T20:37:23.325Z,96803.00
2022-09-22T20:39:50.762Z,96806.16
2022-09-22T20:42:18.323Z,96805.38
2022-09-22T20:44:45.551Z,96808.22
2022-09-22T20:47:18.102Z,96809.84
2022-09-22T20:49:50.681Z,96815.19
2022-09-22T20:52:20.473Z,96817.88
2022-09-22T20:54:48.465Z,96828.59
2022-09-22T20:57:16.326Z,96824.63
2022-09-22T20:59:45.994Z,96822.38
2022-09-22T21:02:14.258Z,96821.19
2022-09-22T21:04:41.632Z,96821.03
2022-09-22T21:07:09.269Z,96815.41
2022-09-22T21:09:54.603Z,96823.56
2022-09-22T21:12:21.602Z,96823.25
2022-09-22T21:14:48.951Z,96818.84
2022-09-22T21:17:15.925Z,96819.88
2022-09-22T21:19:43.531Z,96819.06
2022-09-22T21:22:10.735Z,96817.25
2022-09-22T21:24:37.632Z,96803.31
2022-09-22T21:27:05.403Z,96812.13
2022-09-22T21:29:32.572Z,96804.34
2022-09-22T21:32:00.808Z,96810.50
2022-09-22T21:34:27.970Z,96810.94
2022-09-22T21:36:54.893Z,96808.75
2022-09-22T21:39:22.509Z,96814.34
2022-09-22T21:41:49.861Z,96809.50
2022-09-22T21:44:16.756Z,96816.75
2022-09-22T21:46:44.495Z,96806.75
2022-09-22T21:49:11.782Z,96816.81
2022-09-22T21:51:44.250Z,96812.63
2022-09-22T21:54:17.821Z,96808.75
2022-09-22T21:56:45.732Z,96807.41
2022-09-22T21:59:13.412Z,96808.75
2022-09-22T22:01:42.366Z,96809.22
2022-09-22T22:04:10.568Z,96811.38
2022-09-22T22:06:40.957Z,96810.16
2022-09-22T22:09:14.852Z,96815.53
2022-09-22T22:11:56.868Z,96809.16
2022-09-22T22:14:26.240Z,96807.13
2022-09-22T22:16:55.122Z,96807.13
2022-09-22T22:19:25.977Z,96803.72
2022-09-22T22:21:53.568Z,96805.94
2022-09-22T22:24:30.091Z,96800.38
2022-09-22T22:27:06.717Z,96798.75
2022-09-22T22:29:38.944Z,96803.19
2022-09-22T22:32:08.902Z,96805.59
2022-09-22T22:34:35.898Z,96799.91
2022-09-22T22:37:04.861Z,96796.94
2022-09-22T22:39:32.790Z,96790.94
2022-09-22T22:41:59.726Z,96783.88
2022-09-22T22:44:26.620Z,96788.88
2022-09-22T22:46:53.601Z,96786.72
2022-09-22T22:49:20.500Z,96785.94
2022-09-22T22:51:49.369Z,96786.34
2022-09-22T22:54:16.410Z,96787.94
2022-09-22T22:56:46.707Z,96784.81
2022-09-22T22:59:16.008Z,96782.63
2022-09-22T23:01:44.535Z,96781.63
2022-09-22T23:04:12.120Z,96781.22
2022-09-22T23:06:41.960Z,96777.66
2022-09-22T23:09:12.001Z,96785.66
2022-09-22T23:11:40.332Z,96776.16
2022-09-22T23:14:09.407Z,96775.22
2022-09-22T23:16:45.434Z,96774.41
2022-09-22T23:19:17.825Z,96770.66
2022-09-22T23:21:45.397Z,96770.44
2022-09-22T23:24:17.277Z,96764.41
2022-09-22T23:26:45.773Z,96763.81
2022-09-22T23:29:13.271Z,96760.84
2022-09-22T23:31:40.307Z,96758.28
2022-09-22T23:34:07.241Z,96765.31
2022-09-22T23:36:34.651Z,96756.88
2022-09-22T23:39:04.285Z,96762.50
2022-09-22T23:41:33.269Z,96745.91
2022-09-22T23:44:00.569Z,96753.94
2022-09-22T23:46:28.207Z,96747.09
2022-09-22T23:48:55.853Z,96751.31
2022-09-22T23:51:23.505Z,96748.09
2022-09-22T23:53:50.685Z,96740.84
2022-09-22T23:56:17.746Z,96744.25
2022-09-22T23:58:45.592Z,96741.06
